createdAt,value
2022-11-13T02:23:01.864Z,29.48
2022-11-13T02:25:50.298Z,33.58
2022-11-13T02:28:38.274Z,25.67
2022-11-13T02:31:26.179Z,26.40
2022-11-13T02:34:14.439Z,22.75
2022-11-13T02:37:02.250Z,19.15
2022-11-13T02:39:50.375Z,17.80
2022-11-13T02:42:38.642Z,16.80
2022-11-13T02:45:26.760Z,15.15
2022-11-13T02:48:14.899Z,14.88
2022-11-13T02:51:02.986Z,13.60
2022-11-13T02:53:51.039Z,13.32
2022-11-13T02:56:41.318Z,12.55
2022-11-13T02:59:29.926Z,11.88
2022-11-13T03:02:18.907Z,11.73
2022-11-13T03:05:12.330Z,12.05
2022-11-13T03:10:48.555Z,9.75
2022-11-13T03:13:37.903Z,9.05
2022-11-13T03:16:26.888Z,9.27
2022-11-13T03:19:15.988Z,9.68
2022-11-13T03:22:04.365Z,8.55
2022-11-13T03:24:52.769Z,9.35
2022-11-13T03:27:41.429Z,8.00
2022-11-13T03:30:30.140Z,8.10
2022-11-13T03:33:18.624Z,6.90
2022-11-13T03:36:10.138Z,6.10
2022-11-13T03:38:58.290Z,5.90
2022-11-13T03:41:48.735Z,5.65
2022-11-13T03:44:36.770Z,4.97
2022-11-13T03:47:24.963Z,4.75
2022-11-13T03:50:13.340Z,4.32
2022-11-13T03:53:02.051Z,3.97
2022-11-13T03:55:50.624Z,4.45
2022-11-13T03:58:40.266Z,3.60
2022-11-13T04:01:31.854Z,3.33
2022-11-13T04:04:20.387Z,3.55
2022-11-13T04:07:08.464Z,3.28
2022-11-13T04:09:56.580Z,2.75
2022-11-13T04:12:44.646Z,2.95
2022-11-13T04:15:32.923Z,2.30
2022-11-13T04:18:20.865Z,2.50
2022-11-13T04:21:08.998Z,2.65
2022-11-13T04:23:57.039Z,1.90
2022-11-13T04:26:45.265Z,1.75
2022-11-13T04:29:33.216Z,1.70
2022-11-13T04:32:21.339Z,1.38
2022-11-13T04:35:10.232Z,1.85
2022-11-13T04:37:58.441Z,1.80
2022-11-13T04:40:46.509Z,1.45
2022-11-13T04:43:34.677Z,1.70
2022-11-13T04:46:22.834Z,1.38
2022-11-13T04:49:11.052Z,2.15
2022-11-13T04:51:59.153Z,2.63
2022-11-13T04:54:47.181Z,2.65
2022-11-13T04:57:35.420Z,3.05
2022-11-13T05:00:23.690Z,3.38
2022-11-13T05:03:11.678Z,3.75
2022-11-13T05:06:09.742Z,2.78
2022-11-13T05:08:57.799Z,4.25
2022-11-13T05:11:46.017Z,4.40
2022-11-13T05:14:34.276Z,3.70
2022-11-13T05:17:22.285Z,3.85
2022-11-13T05:20:11.094Z,4.55
2022-11-13T05:22:59.035Z,4.28
2022-11-13T05:25:47.124Z,4.00
2022-11-13T05:28:35.278Z,4.30
2022-11-13T05:31:23.245Z,3.83
2022-11-13T05:34:11.221Z,4.32
2022-11-13T05:36:59.315Z,4.20
2022-11-13T05:39:47.232Z,4.55
2022-11-13T05:42:35.358Z,4.15
2022-11-13T05:45:24.032Z,4.25
2022-11-13T05:48:12.109Z,3.75
2022-11-13T05:51:21.325Z,3.40
2022-11-13T05:54:09.985Z,3.65
2022-11-13T05:57:04.037Z,3.47
2022-11-13T05:59:52.204Z,3.67
2022-11-13T06:02:40.191Z,3.30
2022-11-13T06:05:28.329Z,3.15
2022-11-13T06:08:16.712Z,3.35
2022-11-13T06:11:06.445Z,3.17
2022-11-13T06:13:55.064Z,3.17
2022-11-13T06:16:43.284Z,3.38
2022-11-13T06:19:31.549Z,4.22
2022-11-13T06:22:19.643Z,2.70
2022-11-13T06:25:08.032Z,4.00
2022-11-13T06:27:55.956Z,3.03
2022-11-13T06:30:44.278Z,3.35
2022-11-13T06:33:32.751Z,2.35
2022-11-13T06:36:25.932Z,2.08
2022-11-13T06:39:14.570Z,3.08
2022-11-13T06:42:02.956Z,2.58
2022-11-13T06:44:56.712Z,2.13
2022-11-13T06:47:47.108Z,3.05
2022-11-13T06:50:35.360Z,4.65
2022-11-13T06:53:23.654Z,5.13
2022-11-13T06:56:11.883Z,4.97
2022-11-13T06:59:05.084Z,5.10
2022-11-13T07:01:55.630Z,5.35
2022-11-13T07:04:43.893Z,4.05
2022-11-13T07:07:31.680Z,3.50
2022-11-13T07:10:19.942Z,3.47
2022-11-13T07:13:08.037Z,4.22
2022-11-13T07:15:56.125Z,3.05
2022-11-13T07:18:44.304Z,2.13
2022-11-13T07:21:32.760Z,2.60
2022-11-13T07:24:20.866Z,2.75
2022-11-13T07:27:08.957Z,2.22
2022-11-13T07:30:00.856Z,2.40
2022-11-13T07:32:51.891Z,2.03
2022-11-13T07:35:40.038Z,2.80
2022-11-13T07:38:31.789Z,2.03
2022-11-13T07:41:20.114Z,2.05
2022-11-13T07:44:09.579Z,1.70
2022-11-13T07:46:58.381Z,1.75
2022-11-13T07:49:46.279Z,1.13
2022-11-13T07:52:34.375Z,1.25
2022-11-13T07:55:22.654Z,0.85
2022-11-13T07:58:11.448Z,1.13
2022-11-13T08:01:10.579Z,0.60
2022-11-13T08:03:58.760Z,0.60
2022-11-13T08:06:59.100Z,0.70
2022-11-13T08:09:47.431Z,0.80
2022-11-13T08:12:35.591Z,0.68
2022-11-13T08:15:23.759Z,0.57
2022-11-13T08:18:11.890Z,0.38
2022-11-13T08:21:02.061Z,0.40
2022-11-13T08:23:51.442Z,0.70
2022-11-13T08:26:40.540Z,0.50
2022-11-13T08:29:28.504Z,0.25
2022-11-13T08:32:17.514Z,0.65
2022-11-13T08:35:05.584Z,0.30
2022-11-13T08:37:53.715Z,0.20
2022-11-13T08:40:41.623Z,0.10
2022-11-13T08:43:29.806Z,0.22
2022-11-13T08:46:17.721Z,0.40
2022-11-13T08:49:05.863Z,0.43
2022-11-13T08:51:54.067Z,0.20
2022-11-13T08:54:42.910Z,0.20
2022-11-13T08:57:31.276Z,0.32
2022-11-13T09:00:19.579Z,0.20
2022-11-13T09:03:07.686Z,0.30
2022-11-13T09:05:55.686Z,0.13
2022-11-13T09:08:43.960Z,0.40
2022-11-13T09:11:31.935Z,0.30
2022-11-13T09:14:19.913Z,0.10
2022-11-13T09:17:08.291Z,0.20
2022-11-13T09:20:00.779Z,0.20
2022-11-13T09:23:02.937Z,0.10
2022-11-13T09:25:51.288Z,0.20
2022-11-13T09:28:39.313Z,0.20
2022-11-13T09:31:27.378Z,0.20
2022-11-13T09:34:15.283Z,0.20
2022-11-13T09:37:03.510Z,0.10
2022-11-13T09:39:51.631Z,0.10
2022-11-13T09:42:39.772Z,0.28
2022-11-13T09:45:28.044Z,0.20
2022-11-13T09:48:34.828Z,0.10
2022-11-13T09:51:28.322Z,0.10
2022-11-13T09:54:16.668Z,0.10
2022-11-13T09:57:29.658Z,0.20
2022-11-13T10:00:22.273Z,0.10
2022-11-13T10:06:54.777Z,0.35
2022-11-13T10:10:11.826Z,0.63
2022-11-13T10:13:00.654Z,0.60
2022-11-13T10:15:50.461Z,0.60
2022-11-13T10:18:39.316Z,0.70
2022-11-13T10:21:33.750Z,0.95
2022-11-13T10:24:28.346Z,0.80
2022-11-13T10:27:17.317Z,1.17
2022-11-13T10:30:05.773Z,0.90
2022-11-13T10:32:54.277Z,1.00
2022-11-13T10:35:46.869Z,1.23
2022-11-13T10:38:55.664Z,1.30
2022-11-13T10:41:51.097Z,1.70
2022-11-13T10:44:39.124Z,1.95
2022-11-13T10:48:02.400Z,2.45
2022-11-13T10:50:41.181Z,2.25
2022-11-13T10:53:41.320Z,2.55
2022-11-13T10:56:34.137Z,2.50
2022-11-13T10:59:22.686Z,2.65
2022-11-13T11:02:19.017Z,2.88
2022-11-13T11:05:21.183Z,3.00
2022-11-13T11:08:11.710Z,2.38
2022-11-13T11:11:20.512Z,2.47
2022-11-13T11:14:23.782Z,3.30
2022-11-13T11:17:12.240Z,2.65
2022-11-13T11:20:39.486Z,2.75
2022-11-13T11:23:33.667Z,3.20
2022-11-13T11:26:56.650Z,2.83
2022-11-13T11:30:02.108Z,2.92
2022-11-13T11:32:50.431Z,3.05
2022-11-13T11:35:43.173Z,4.53
2022-11-13T11:39:16.233Z,4.20
2022-11-13T11:42:25.032Z,3.38
2022-11-13T11:45:42.683Z,3.70
2022-11-13T11:48:33.766Z,4.20
2022-11-13T11:51:28.518Z,5.28
2022-11-13T11:54:40.499Z,4.53
2022-11-13T11:57:59.596Z,4.75
2022-11-13T12:01:06.494Z,4.68
2022-11-13T12:04:31.134Z,5.28
2022-11-13T12:07:38.928Z,4.65
2022-11-13T12:11:06.409Z,5.07
2022-11-13T12:14:24.753Z,4.78
2022-11-13T12:17:40.303Z,4.72
2022-11-13T12:20:29.626Z,5.43
2022-11-13T12:23:45.659Z,5.47
2022-11-13T12:27:11.806Z,5.95
2022-11-13T12:30:02.597Z,4.82
2022-11-13T12:32:55.527Z,3.92
2022-11-13T12:35:43.751Z,3.83
2022-11-13T12:38:37.751Z,4.18
2022-11-13T12:41:36.771Z,3.83
2022-11-13T12:44:32.202Z,4.50
2022-11-13T12:47:20.554Z,6.10
2022-11-13T12:50:32.958Z,6.57
2022-11-13T12:53:32.976Z,8.40
2022-11-13T12:56:29.762Z,7.40
2022-11-13T12:59:30.791Z,8.40
2022-11-13T13:02:56.441Z,8.18
2022-11-13T13:06:08.770Z,7.90
2022-11-13T13:08:57.173Z,8.02
2022-11-13T13:11:51.409Z,8.10
2022-11-13T13:15:06.716Z,8.23
2022-11-13T13:18:27.222Z,8.98
2022-11-13T13:21:19.615Z,9.32
2022-11-13T13:24:32.867Z,8.82
2022-11-13T13:27:32.007Z,9.73
2022-11-13T13:30:21.415Z,9.73
2022-11-13T13:33:34.606Z,8.93
2022-11-13T13:36:46.411Z,7.70
2022-11-13T13:39:55.967Z,8.48
2022-11-13T13:43:32.421Z,7.18
2022-11-13T13:46:27.771Z,6.22
2022-11-13T13:49:20.992Z,6.47
2022-11-13T13:52:13.487Z,6.03
2022-11-13T13:55:05.768Z,5.03
2022-11-13T13:57:54.067Z,6.05
2022-11-13T14:01:05.216Z,4.90
2022-11-13T14:04:15.253Z,5.53
2022-11-13T14:07:19.639Z,5.57
2022-11-13T14:10:17.948Z,5.35
2022-11-13T14:13:06.637Z,6.47
2022-11-13T14:16:08.257Z,6.38
2022-11-13T14:19:05.439Z,7.80
2022-11-13T14:22:01.511Z,6.47
2022-11-13T14:24:58.480Z,7.57
2022-11-13T14:27:46.365Z,8.25
2022-11-13T14:30:34.565Z,9.48
2022-11-13T14:33:37.368Z,9.80
2022-11-13T14:36:33.345Z,10.15
2022-11-13T14:39:30.398Z,8.60
2022-11-13T14:42:25.136Z,8.85
2022-11-13T14:45:17.704Z,7.65
2022-11-13T14:48:16.279Z,7.05
2022-11-13T14:51:06.540Z,7.18
2022-11-13T14:54:09.173Z,6.60
2022-11-13T14:56:59.388Z,6.50
2022-11-13T14:59:47.712Z,7.13
2022-11-13T15:02:38.722Z,7.07
2022-11-13T15:05:30.065Z,6.57
2022-11-13T15:08:18.259Z,7.30
2022-11-13T15:11:06.372Z,8.05
2022-11-13T15:13:54.599Z,7.25
2022-11-13T15:16:42.576Z,8.32
2022-11-13T15:19:37.885Z,6.53
2022-11-13T15:22:27.668Z,8.05
2022-11-13T15:25:17.799Z,7.45
2022-11-13T15:28:06.084Z,7.97
2022-11-13T15:30:54.315Z,8.18
2022-11-13T15:33:42.387Z,7.97
2022-11-13T15:36:30.729Z,8.55
2022-11-13T15:39:23.738Z,8.35
2022-11-13T15:42:16.798Z,9.23
2022-11-13T15:45:07.243Z,9.07
2022-11-13T15:47:55.712Z,12.63
2022-11-13T15:50:43.804Z,16.23
2022-11-13T15:53:32.033Z,18.92
2022-11-13T15:56:20.255Z,18.55
2022-11-13T15:59:08.306Z,17.90
2022-11-13T16:01:58.593Z,16.88
2022-11-13T16:04:56.014Z,16.13
2022-11-13T16:07:45.440Z,13.40
2022-11-13T16:10:34.056Z,11.88
2022-11-13T16:13:23.071Z,11.80
2022-11-13T16:16:24.675Z,11.38
2022-11-13T16:19:17.308Z,10.77
2022-11-13T16:22:05.387Z,10.10
2022-11-13T16:24:53.731Z,10.05
2022-11-13T16:27:43.348Z,8.00
2022-11-13T16:30:32.626Z,8.65
2022-11-13T16:33:20.484Z,9.73
2022-11-13T16:36:15.871Z,10.65
2022-11-13T16:39:04.084Z,9.82
2022-11-13T16:41:52.293Z,9.63
2022-11-13T16:44:40.948Z,8.45
2022-11-13T16:47:28.960Z,8.32
2022-11-13T16:50:18.994Z,8.38
2022-11-13T16:53:07.641Z,7.95
2022-11-13T16:55:56.448Z,8.05
2022-11-13T16:58:44.759Z,7.97
2022-11-13T17:01:32.638Z,7.93
2022-11-13T17:04:20.886Z,8.45
2022-11-13T17:07:10.635Z,9.52
2022-11-13T17:10:24.194Z,9.73
2022-11-13T17:13:06.691Z,8.52
2022-11-13T17:15:55.217Z,8.88
2022-11-13T17:18:44.114Z,10.27
2022-11-13T17:21:32.824Z,9.43
2022-11-13T17:24:21.017Z,8.77
2022-11-13T17:27:09.802Z,7.75
2022-11-13T17:29:58.262Z,7.95
2022-11-13T17:32:46.385Z,7.47
2022-11-13T17:35:34.751Z,8.45
2022-11-13T17:38:23.112Z,7.82
2022-11-13T17:41:13.716Z,11.25
2022-11-13T17:44:02.370Z,12.95
2022-11-13T17:46:51.272Z,14.13
2022-11-13T17:49:39.567Z,15.07
2022-11-13T17:52:27.772Z,13.43
2022-11-13T17:55:16.700Z,10.48
2022-11-13T17:58:05.074Z,9.75
2022-11-13T18:00:53.858Z,7.88
2022-11-13T18:03:42.587Z,8.13
2022-11-13T18:06:31.046Z,8.02
2022-11-13T18:09:19.640Z,7.53
2022-11-13T18:12:08.515Z,8.63
2022-11-13T18:14:57.232Z,8.82
2022-11-13T18:17:45.470Z,7.95
2022-11-13T18:20:39.657Z,9.93
2022-11-13T18:23:28.139Z,7.82
2022-11-13T18:26:20.351Z,7.53
2022-11-13T18:29:08.441Z,7.43
2022-11-13T18:31:56.864Z,7.10
2022-11-13T18:34:45.242Z,6.47
2022-11-13T18:37:33.338Z,6.68
2022-11-13T18:40:21.403Z,6.82
2022-11-13T18:43:10.040Z,6.82
2022-11-13T18:46:06.126Z,7.13
2022-11-13T18:48:56.173Z,6.88
2022-11-13T18:51:44.820Z,6.88
2022-11-13T18:54:33.279Z,7.53
2022-11-13T18:57:21.448Z,6.45
2022-11-13T19:00:11.357Z,6.85
2022-11-13T19:02:59.906Z,6.30
2022-11-13T19:05:48.883Z,5.78
2022-11-13T19:08:40.737Z,6.38
2022-11-13T19:11:30.135Z,5.85
2022-11-13T19:14:18.959Z,6.28
2022-11-13T19:17:07.421Z,6.15
2022-11-13T19:19:55.945Z,6.05
2022-11-13T19:22:44.829Z,6.00
2022-11-13T19:25:33.227Z,5.85
2022-11-13T19:28:22.132Z,6.65
2022-11-13T19:31:15.219Z,6.72
2022-11-13T19:34:08.624Z,6.15
2022-11-13T19:36:56.438Z,6.70
2022-11-13T19:39:44.501Z,5.68
2022-11-13T19:42:32.643Z,5.93
2022-11-13T19:45:20.669Z,5.55
2022-11-13T19:48:08.843Z,5.65
2022-11-13T19:51:03.370Z,5.65
2022-11-13T19:54:00.807Z,6.03
2022-11-13T19:56:48.761Z,5.80
2022-11-13T19:59:36.752Z,6.22
2022-11-13T20:02:26.161Z,4.93
2022-11-13T20:05:14.363Z,5.53
2022-11-13T20:08:02.519Z,5.15
2022-11-13T20:10:51.087Z,5.93
2022-11-13T20:13:39.993Z,5.40
2022-11-13T20:16:28.256Z,4.78
2022-11-13T20:19:16.367Z,4.13
2022-11-13T20:22:04.344Z,5.28
2022-11-13T20:24:52.284Z,4.43
2022-11-13T20:27:45.947Z,4.80
2022-11-13T20:30:48.754Z,4.97
2022-11-13T20:33:39.619Z,4.65
2022-11-13T20:36:28.018Z,4.22
2022-11-13T20:39:16.205Z,4.38
2022-11-13T20:42:04.315Z,5.07
2022-11-13T20:44:54.367Z,4.43
2022-11-13T20:47:45.372Z,4.65
2022-11-13T20:50:33.316Z,4.05
2022-11-13T20:53:21.257Z,4.25
2022-11-13T20:56:12.378Z,4.63
2022-11-13T20:59:00.455Z,4.28
2022-11-13T21:01:48.397Z,4.22
2022-11-13T21:04:36.641Z,4.78
2022-11-13T21:07:25.123Z,4.40
2022-11-13T21:10:13.129Z,4.65
2022-11-13T21:13:01.182Z,4.47
2022-11-13T21:15:49.491Z,4.40
2022-11-13T21:18:37.639Z,3.78
2022-11-13T21:21:27.417Z,3.90
2022-11-13T21:24:15.529Z,3.92
2022-11-13T21:27:03.872Z,4.18
2022-11-13T21:29:52.014Z,3.90
2022-11-13T21:32:40.975Z,3.55
2022-11-13T21:35:29.461Z,4.63
2022-11-13T21:38:17.530Z,4.38
2022-11-13T21:41:25.606Z,3.60
2022-11-13T21:44:13.975Z,4.00
2022-11-13T21:47:02.309Z,3.22
2022-11-13T21:49:50.575Z,3.90
2022-11-13T21:52:38.447Z,3.35
2022-11-13T21:55:26.429Z,3.58
2022-11-13T21:58:16.226Z,3.78
2022-11-13T22:01:05.430Z,4.43
2022-11-13T22:03:53.876Z,4.72
2022-11-13T22:06:44.868Z,4.25
2022-11-13T22:09:33.309Z,4.13
2022-11-13T22:12:23.120Z,4.22
2022-11-13T22:15:12.098Z,4.40
2022-11-13T22:18:00.349Z,4.28
2022-11-13T22:20:50.360Z,3.65
2022-11-13T22:23:38.279Z,3.30
2022-11-13T22:26:27.547Z,3.60
2022-11-13T22:29:15.776Z,3.80
2022-11-13T22:32:04.228Z,3.60
2022-11-13T22:34:52.117Z,3.78
2022-11-13T22:37:40.075Z,4.63
2022-11-13T22:40:28.374Z,4.35
2022-11-13T22:43:16.296Z,3.88
2022-11-13T22:46:11.652Z,3.60
2022-11-13T22:49:02.768Z,4.22
2022-11-13T22:51:50.969Z,3.58
2022-11-13T22:54:39.323Z,3.83
2022-11-13T22:57:27.492Z,3.50
2022-11-13T23:00:15.990Z,4.25
2022-11-13T23:03:04.022Z,4.10
2022-11-13T23:05:51.979Z,4.82
2022-11-13T23:08:40.535Z,3.83
2022-11-13T23:11:30.851Z,4.30
2022-11-13T23:14:18.989Z,3.50
2022-11-13T23:17:07.549Z,4.00
2022-11-13T23:19:56.419Z,3.70
2022-11-13T23:22:44.763Z,3.55
2022-11-13T23:25:34.868Z,4.30
2022-11-13T23:28:23.326Z,4.25
2022-11-13T23:31:12.074Z,3.90
2022-11-13T23:34:00.611Z,3.33
2022-11-13T23:36:48.727Z,3.72
2022-11-13T23:39:38.006Z,4.05
2022-11-13T23:42:45.806Z,4.65
2022-11-13T23:45:35.303Z,4.63
2022-11-13T23:48:23.742Z,4.40
2022-11-13T23:51:12.389Z,5.07
2022-11-13T23:54:00.798Z,4.75
2022-11-13T23:56:49.266Z,4.13
2022-11-13T23:59:37.739Z,4.95
